Time;durP1;ratioP1;P1;durP2;ratioP2;P2;SDS_P1;SDS_P2;PMS_P1;PMS_P2;Temp;Humidity;BMP_temperature;BMP_pressure;BME280_temperature;BME280_humidity;BME280_pressure;Samples;Min_cycle;Max_cycle;Signal;HPM_P1;HPM_P2
2022/10/31 00:00:43;;;;;;;2.00;1.30;;;16.10;42.90;;;;;;5017735;28;20415;-79
2022/10/31 00:03:08;;;;;;;2.20;1.40;;;16.20;42.70;;;;;;5016045;28;20443;-79
2022/10/31 00:05:34;;;;;;;2.00;1.23;;;16.20;41.70;;;;;;5036084;23;20198;-72
2022/10/31 00:07:59;;;;;;;2.10;1.30;;;16.10;42.50;;;;;;5005260;28;20268;-71
2022/10/31 00:10:25;;;;;;;3.23;1.60;;;16.10;42.20;;;;;;4988397;28;20617;-72
2022/10/31 00:12:51;;;;;;;2.00;1.23;;;16.10;42.30;;;;;;4993857;28;20194;-71
2022/10/31 00:15:17;;;;;;;2.00;1.20;;;16.00;42.30;;;;;;4994558;28;20268;-71
2022/10/31 00:17:42;;;;;;;2.20;1.40;;;16.00;42.90;;;;;;4989823;28;20443;-72
2022/10/31 00:20:08;;;;;;;2.50;1.30;;;16.00;43.10;;;;;;4989507;28;20305;-71
2022/10/31 00:22:34;;;;;;;4.23;1.83;;;15.90;43.20;;;;;;4993392;28;20205;-71
2022/10/31 00:24:59;;;;;;;2.10;1.30;;;15.80;43.50;;;;;;4992016;28;20421;-72
2022/10/31 00:27:25;;;;;;;2.10;1.30;;;15.80;43.10;;;;;;4994177;28;20223;-72
2022/10/31 00:29:51;;;;;;;2.20;1.30;;;15.80;43.40;;;;;;4993595;28;20171;-71
2022/10/31 00:32:16;;;;;;;3.07;1.80;;;15.90;43.40;;;;;;4992979;28;20545;-70
2022/10/31 00:34:42;;;;;;;2.90;1.40;;;15.70;43.80;;;;;;4993577;28;20197;-71
2022/10/31 00:37:07;;;;;;;2.07;1.20;;;16.00;44.30;;;;;;4998099;28;20202;-71
2022/10/31 00:39:33;;;;;;;2.10;1.40;;;15.70;43.40;;;;;;4992862;28;20218;-71
2022/10/31 00:41:58;;;;;;;3.93;1.67;;;15.70;43.80;;;;;;4992922;28;20195;-69
2022/10/31 00:44:24;;;;;;;4.30;2.17;;;15.50;44.30;;;;;;4992239;28;20246;-71
2022/10/31 00:46:49;;;;;;;2.20;1.20;;;15.50;44.10;;;;;;4992214;28;20569;-71
2022/10/31 00:49:15;;;;;;;2.17;1.20;;;15.50;44.40;;;;;;5000395;28;20209;-71
2022/10/31 00:51:41;;;;;;;2.30;1.30;;;15.50;43.90;;;;;;4992937;28;20189;-70
2022/10/31 00:54:06;;;;;;;2.73;1.67;;;15.40;44.10;;;;;;4992042;28;20206;-71
2022/10/31 00:56:32;;;;;;;2.20;1.20;;;15.30;44.30;;;;;;4988504;28;20280;-71
2022/10/31 00:58:57;;;;;;;2.37;1.47;;;15.40;44.50;;;;;;4982672;28;20273;-71
2022/10/31 01:01:23;;;;;;;3.03;1.73;;;15.30;44.50;;;;;;4991875;28;20232;-71
2022/10/31 01:03:48;;;;;;;4.30;1.57;;;15.30;44.90;;;;;;4992784;28;20548;-71
2022/10/31 01:06:14;;;;;;;4.20;2.40;;;15.40;44.50;;;;;;4991311;28;20218;-71
2022/10/31 01:08:40;;;;;;;2.10;1.13;;;15.30;45.20;;;;;;4993818;28;20256;-71
2022/10/31 01:11:18;;;;;;;2.40;1.20;;;15.40;44.80;;;;;;4989811;28;20195;-71
2022/10/31 01:13:44;;;;;;;2.30;1.30;;;15.40;45.20;;;;;;4992584;28;20425;-71
2022/10/31 01:16:12;;;;;;;2.57;1.47;;;15.20;45.20;;;;;;4992681;28;20430;-71
2022/10/31 01:18:38;;;;;;;2.20;1.20;;;15.60;44.70;;;;;;4975162;28;20425;-71
2022/10/31 01:21:06;;;;;;;2.50;1.40;;;15.60;44.20;;;;;;4989333;28;20467;-71
2022/10/31 01:23:32;;;;;;;2.70;1.80;;;15.40;44.50;;;;;;4992167;28;20500;-71
2022/10/31 01:26:00;;;;;;;2.20;1.20;;;15.70;45.40;;;;;;4992453;28;20580;-71
2022/10/31 01:28:25;;;;;;;2.33;1.30;;;15.40;44.40;;;;;;4992470;28;20467;-72
2022/10/31 01:30:51;;;;;;;4.00;1.60;;;15.40;44.30;;;;;;4991657;28;20524;-71
2022/10/31 01:33:16;;;;;;;2.30;1.40;;;15.30;44.50;;;;;;4991697;28;20178;-71
2022/10/31 01:35:42;;;;;;;2.47;1.30;;;15.40;44.50;;;;;;4993019;28;20285;-71
2022/10/31 01:38:08;;;;;;;2.20;1.10;;;15.30;44.40;;;;;;4992457;28;20170;-70
2022/10/31 01:40:33;;;;;;;2.30;1.30;;;15.30;44.60;;;;;;4992381;28;20171;-72
2022/10/31 01:42:59;;;;;;;2.60;1.50;;;15.10;44.50;;;;;;4988429;28;20190;-71
2022/10/31 01:45:24;;;;;;;2.40;1.30;;;15.20;44.80;;;;;;4991624;28;20178;-71
2022/10/31 01:47:50;;;;;;;2.30;1.20;;;15.10;45.30;;;;;;4992192;28;20563;-71
2022/10/31 01:50:32;;;;;;;2.40;1.20;;;15.20;45.40;;;;;;4992108;28;20167;-71
2022/10/31 01:53:00;;;;;;;3.23;1.80;;;15.10;45.40;;;;;;4982878;28;20650;-71
2022/10/31 01:55:32;;;;;;;3.27;1.60;;;15.10;45.70;;;;;;4983223;28;21002;-71
2022/10/31 01:58:16;;;;;;;2.43;1.20;;;15.10;45.50;;;;;;4991968;28;20456;-71
2022/10/31 02:00:44;;;;;;;2.67;1.43;;;15.10;45.10;;;;;;4985985;28;20416;-71
2022/10/31 02:03:11;;;;;;;7.70;1.93;;;15.10;46.40;;;;;;4991023;28;20902;-71
2022/10/31 02:05:37;;;;;;;2.63;1.30;;;14.90;45.90;;;;;;4991415;28;20545;-71
2022/10/31 02:08:21;;;;;;;2.40;1.30;;;14.90;45.80;;;;;;4991684;28;20453;-71
2022/10/31 02:10:47;;;;;;;2.50;1.20;;;14.90;45.30;;;;;;4991395;28;20874;-70
2022/10/31 02:13:13;;;;;;;3.80;1.63;;;15.00;45.70;;;;;;4989476;28;20469;-71
2022/10/31 02:15:40;;;;;;;2.40;1.10;;;14.90;45.50;;;;;;4974115;28;20449;-71
2022/10/31 02:18:08;;;;;;;5.23;1.63;;;14.90;45.90;;;;;;4991861;28;20409;-71
2022/10/31 02:20:52;;;;;;;2.50;1.17;;;14.80;46.10;;;;;;4991863;28;20774;-71
2022/10/31 02:23:47;;;;;;;2.60;1.60;;;14.80;46.50;;;;;;4992929;28;20540;-70
2022/10/31 02:26:44;;;;;;;2.50;1.20;;;14.90;46.50;;;;;;4988763;28;20455;-71
2022/10/31 02:29:39;;;;;;;2.57;1.30;;;15.00;46.00;;;;;;4991012;28;20959;-71
2022/10/31 02:32:37;;;;;;;2.50;1.10;;;14.80;46.70;;;;;;4991726;28;20382;-71
2022/10/31 02:35:11;;;;;;;2.80;1.30;;;14.80;46.00;;;;;;4989247;28;20444;-70
2022/10/31 02:37:40;;;;;;;4.40;1.50;;;14.90;45.60;;;;;;4991495;28;20473;-71
2022/10/31 02:40:33;;;;;;;2.80;1.40;;;14.90;45.60;;;;;;4991743;28;20440;-70
2022/10/31 02:43:12;;;;;;;2.70;1.27;;;15.00;45.60;;;;;;4982440;28;20484;-71
2022/10/31 02:45:37;;;;;;;2.60;1.20;;;15.20;45.40;;;;;;4986903;28;20877;-70
2022/10/31 02:48:10;;;;;;;2.90;1.50;;;15.10;45.00;;;;;;4991717;28;20429;-71
2022/10/31 02:50:40;;;;;;;3.13;1.47;;;15.00;45.30;;;;;;4991522;28;20596;-71
2022/10/31 02:53:06;;;;;;;2.73;1.30;;;15.00;45.20;;;;;;4991413;28;20757;-70
2022/10/31 02:55:34;;;;;;;2.90;1.30;;;15.10;45.30;;;;;;4993019;28;20456;-71
2022/10/31 02:58:13;;;;;;;2.57;1.20;;;15.00;45.70;;;;;;4990894;28;20656;-70
2022/10/31 03:01:09;;;;;;;2.70;1.20;;;15.00;46.40;;;;;;4985705;28;20496;-72
2022/10/31 03:03:51;;;;;;;3.10;1.60;;;14.90;45.10;;;;;;4995169;28;20835;-71
2022/10/31 03:06:32;;;;;;;3.63;1.40;;;15.00;45.50;;;;;;5001093;28;20959;-71
2022/10/31 03:09:18;;;;;;;2.60;1.10;;;15.00;45.60;;;;;;4991069;28;20487;-71
2022/10/31 03:12:12;;;;;;;2.70;1.10;;;14.80;45.00;;;;;;4975517;28;20474;-71
2022/10/31 03:14:49;;;;;;;4.40;1.53;;;14.70;45.60;;;;;;4976182;28;20448;-70
2022/10/31 03:17:24;;;;;;;2.60;1.10;;;14.90;46.10;;;;;;4988808;28;20459;-71
2022/10/31 03:19:54;;;;;;;3.10;1.50;;;14.80;45.70;;;;;;4994740;28;20826;-71
2022/10/31 03:22:25;;;;;;;2.70;1.10;;;14.70;46.40;;;;;;5013147;28;20559;-71
2022/10/31 03:24:52;;;;;;;4.30;1.80;;;14.90;46.20;;;;;;5001686;28;20434;-71
2022/10/31 03:27:23;;;;;;;2.80;1.30;;;14.90;45.40;;;;;;4990531;28;20484;-71
2022/10/31 03:29:51;;;;;;;4.60;1.93;;;14.90;45.90;;;;;;4993815;28;20436;-70
2022/10/31 03:32:27;;;;;;;4.03;1.30;;;14.80;46.40;;;;;;4994893;28;20504;-71
2022/10/31 03:34:56;;;;;;;2.90;1.30;;;14.90;45.60;;;;;;4993867;28;20801;-71
2022/10/31 03:37:25;;;;;;;2.90;1.30;;;14.80;45.70;;;;;;4992565;28;20449;-71
2022/10/31 03:39:52;;;;;;;2.80;1.20;;;14.90;45.40;;;;;;4988817;28;20508;-70
2022/10/31 03:42:23;;;;;;;4.00;1.67;;;14.80;46.80;;;;;;4994152;28;20551;-71
2022/10/31 03:44:57;;;;;;;2.90;1.20;;;15.10;47.00;;;;;;5001044;28;20441;-71
2022/10/31 03:47:23;;;;;;;3.20;1.37;;;14.60;46.50;;;;;;5005256;28;20439;-70
2022/10/31 03:49:49;;;;;;;2.90;1.20;;;14.70;46.10;;;;;;5002783;28;20889;-71
2022/10/31 03:52:22;;;;;;;2.80;1.17;;;14.70;46.00;;;;;;4993915;28;20490;-71
2022/10/31 03:55:05;;;;;;;2.83;1.17;;;15.20;45.90;;;;;;5001184;28;20954;-71
2022/10/31 03:57:46;;;;;;;4.47;1.60;;;14.80;45.60;;;;;;4994761;28;20471;-71
2022/10/31 04:00:14;;;;;;;2.80;1.10;;;14.60;46.90;;;;;;4994182;28;21026;-71
2022/10/31 04:03:06;;;;;;;3.10;1.40;;;14.70;46.30;;;;;;4993726;28;20452;-71
2022/10/31 04:05:32;;;;;;;3.20;1.40;;;14.50;46.30;;;;;;4986599;28;20480;-71
2022/10/31 04:08:00;;;;;;;3.13;1.30;;;14.50;46.30;;;;;;5009616;28;20412;-71
2022/10/31 04:10:27;;;;;;;2.90;1.00;;;14.60;45.90;;;;;;4997017;28;20527;-71
2022/10/31 04:12:59;;;;;;;3.00;1.10;;;14.60;45.80;;;;;;4993392;28;20417;-71
2022/10/31 04:15:27;;;;;;;3.30;1.37;;;14.50;45.60;;;;;;4988526;28;20476;-71
2022/10/31 04:17:55;;;;;;;4.13;1.50;;;14.50;46.20;;;;;;4993690;28;20431;-71
2022/10/31 04:20:30;;;;;;;4.07;1.77;;;14.30;45.30;;;;;;4995355;28;20441;-71
2022/10/31 04:22:56;;;;;;;4.50;1.50;;;14.20;46.40;;;;;;4993197;28;20471;-70
2022/10/31 04:25:21;;;;;;;3.23;1.20;;;14.30;45.90;;;;;;4993443;28;20413;-71
2022/10/31 04:27:47;;;;;;;3.20;1.10;;;14.20;45.40;;;;;;4993181;28;20269;-71
2022/10/31 04:30:12;;;;;;;3.30;1.17;;;14.30;45.60;;;;;;4993014;28;20185;-71
2022/10/31 04:32:38;;;;;;;3.63;1.47;;;14.10;46.00;;;;;;4989636;28;20194;-70
2022/10/31 04:35:04;;;;;;;3.63;1.37;;;14.10;45.90;;;;;;4993208;28;20213;-70
2022/10/31 04:37:29;;;;;;;3.80;1.60;;;14.00;46.10;;;;;;4993469;28;20201;-71
2022/10/31 04:39:55;;;;;;;3.30;1.10;;;13.90;46.60;;;;;;4993175;28;20409;-71
2022/10/31 04:42:20;;;;;;;3.50;1.20;;;14.00;47.10;;;;;;4991768;28;20731;-71
2022/10/31 04:44:46;;;;;;;4.00;1.60;;;13.90;46.80;;;;;;4993175;28;20232;-71
2022/10/31 04:47:12;;;;;;;3.50;1.40;;;14.00;46.80;;;;;;4993140;28;20197;-71
2022/10/31 04:49:37;;;;;;;3.50;1.20;;;14.00;46.40;;;;;;4992912;28;20190;-70
2022/10/31 04:52:03;;;;;;;4.43;1.30;;;14.00;46.70;;;;;;4992311;28;20200;-71
2022/10/31 04:54:28;;;;;;;3.40;1.10;;;13.90;46.30;;;;;;4986332;28;20193;-70
2022/10/31 04:56:54;;;;;;;3.80;1.50;;;14.20;46.90;;;;;;4992769;28;20272;-71
2022/10/31 04:59:20;;;;;;;3.70;1.47;;;14.00;46.60;;;;;;4992253;28;20193;-71
2022/10/31 05:01:45;;;;;;;4.47;1.57;;;13.90;46.80;;;;;;4992254;28;20205;-69
2022/10/31 05:04:11;;;;;;;3.60;1.20;;;14.00;46.80;;;;;;4992529;28;20273;-70
2022/10/31 05:06:36;;;;;;;3.50;1.20;;;14.10;46.40;;;;;;4997099;28;20205;-71
2022/10/31 05:09:02;;;;;;;3.37;1.07;;;14.20;45.60;;;;;;5012356;28;20172;-71
2022/10/31 05:11:28;;;;;;;3.60;1.30;;;14.10;46.00;;;;;;5003709;28;20236;-71
2022/10/31 05:13:53;;;;;;;3.73;1.33;;;14.10;46.30;;;;;;4990616;28;20189;-70
2022/10/31 05:16:19;;;;;;;3.50;1.30;;;14.00;46.40;;;;;;4992341;28;20208;-71
2022/10/31 05:18:44;;;;;;;4.37;1.40;;;14.10;46.20;;;;;;4992862;28;20642;-71
2022/10/31 05:21:10;;;;;;;3.30;1.20;;;13.90;46.70;;;;;;4992297;28;20248;-71
2022/10/31 05:23:36;;;;;;;3.40;1.27;;;14.00;46.70;;;;;;4991075;28;20217;-70
2022/10/31 05:26:01;;;;;;;3.20;1.07;;;14.20;46.60;;;;;;4984651;28;20206;-71
2022/10/31 05:28:27;;;;;;;3.30;1.10;;;14.20;46.30;;;;;;4992565;28;20631;-71
2022/10/31 05:30:52;;;;;;;3.50;1.27;;;14.30;46.00;;;;;;4992416;28;20676;-72
2022/10/31 05:33:18;;;;;;;4.00;1.50;;;14.30;46.40;;;;;;4992089;28;20221;-71
2022/10/31 05:35:43;;;;;;;3.50;1.20;;;13.90;46.50;;;;;;4992275;28;20580;-71
2022/10/31 05:38:09;;;;;;;3.80;1.43;;;14.10;47.00;;;;;;4992332;28;20208;-71
2022/10/31 05:40:35;;;;;;;3.40;1.10;;;13.90;46.00;;;;;;4992238;28;20229;-71
2022/10/31 05:43:00;;;;;;;3.53;1.30;;;14.00;45.20;;;;;;4990996;28;20213;-71
2022/10/31 05:45:26;;;;;;;4.93;1.50;;;14.20;45.80;;;;;;5001035;28;20207;-70
2022/10/31 05:47:53;;;;;;;3.70;1.30;;;13.80;46.00;;;;;;4991930;28;20177;-71
2022/10/31 05:50:20;;;;;;;4.00;1.30;;;13.70;45.40;;;;;;4992203;28;20237;-70
2022/10/31 05:52:46;;;;;;;3.47;1.10;;;13.60;45.90;;;;;;4991342;28;20453;-71
2022/10/31 05:55:12;;;;;;;3.50;1.20;;;13.60;46.30;;;;;;4993632;28;20443;-71
2022/10/31 05:57:38;;;;;;;3.43;1.17;;;13.60;46.20;;;;;;4985252;28;20457;-71
2022/10/31 06:00:05;;;;;;;3.80;1.40;;;13.60;46.90;;;;;;4991976;28;20236;-71
2022/10/31 06:02:34;;;;;;;3.50;1.20;;;13.60;46.40;;;;;;4991240;28;20245;-70
2022/10/31 06:05:00;;;;;;;3.40;1.10;;;13.60;46.30;;;;;;4992260;28;20468;-73
2022/10/31 06:07:26;;;;;;;3.50;1.30;;;13.80;45.90;;;;;;4990867;28;20469;-73
2022/10/31 06:09:52;;;;;;;3.47;1.17;;;13.80;46.30;;;;;;4991630;28;20450;-72
2022/10/31 06:12:17;;;;;;;4.10;1.50;;;13.80;46.00;;;;;;4974833;28;20252;-73
2022/10/31 06:14:43;;;;;;;3.60;1.37;;;13.60;45.80;;;;;;5003298;28;20208;-72
2022/10/31 06:17:08;;;;;;;3.47;1.10;;;13.50;46.50;;;;;;4994971;28;20217;-72
2022/10/31 06:19:34;;;;;;;4.00;1.50;;;13.50;46.00;;;;;;4991853;28;20293;-73
2022/10/31 06:21:59;;;;;;;3.80;1.40;;;13.80;45.90;;;;;;4991584;28;20202;-72
2022/10/31 06:24:25;;;;;;;3.50;1.20;;;13.60;46.70;;;;;;4990049;28;20182;-72
2022/10/31 06:26:50;;;;;;;3.60;1.20;;;13.60;45.80;;;;;;4990530;28;20205;-73
2022/10/31 06:29:16;;;;;;;4.10;1.67;;;13.60;45.90;;;;;;4991742;28;20181;-73
2022/10/31 06:31:41;;;;;;;4.10;1.60;;;13.60;45.80;;;;;;4992028;28;20661;-72
2022/10/31 06:34:07;;;;;;;4.13;1.50;;;13.60;46.60;;;;;;4992247;28;20275;-73
2022/10/31 06:36:33;;;;;;;3.90;1.60;;;13.60;46.20;;;;;;4991551;28;20212;-74
2022/10/31 06:38:59;;;;;;;3.53;1.30;;;14.00;45.60;;;;;;4975091;28;20186;-72
2022/10/31 06:41:25;;;;;;;3.70;1.30;;;13.90;45.20;;;;;;4990962;28;20707;-74
2022/10/31 06:43:51;;;;;;;3.53;1.20;;;13.80;45.90;;;;;;4995352;28;20425;-73
2022/10/31 06:46:16;;;;;;;7.20;2.10;;;13.80;46.50;;;;;;4992882;28;20485;-73
2022/10/31 06:48:42;;;;;;;3.40;1.17;;;14.00;45.40;;;;;;4991896;28;20192;-73
2022/10/31 06:51:08;;;;;;;3.60;1.43;;;13.90;45.70;;;;;;4995095;28;20174;-74
2022/10/31 06:53:33;;;;;;;3.87;1.53;;;14.40;46.30;;;;;;4995271;28;20702;-74
2022/10/31 06:55:59;;;;;;;16.10;2.43;;;13.90;46.10;;;;;;4995331;28;20228;-73
2022/10/31 06:58:25;;;;;;;3.40;1.20;;;13.90;46.80;;;;;;4994720;28;20232;-74
2022/10/31 07:00:50;;;;;;;3.30;1.20;;;13.90;46.50;;;;;;4991589;28;20434;-74
2022/10/31 07:03:16;;;;;;;3.50;1.30;;;13.90;46.60;;;;;;4999610;28;20210;-73
2022/10/31 07:05:42;;;;;;;3.70;1.40;;;14.00;46.30;;;;;;5002862;28;20216;-74
2022/10/31 07:08:13;;;;;;;3.80;1.50;;;14.00;47.10;;;;;;5014587;28;20499;-72
2022/10/31 07:10:40;;;;;;;4.07;1.73;;;14.00;47.50;;;;;;4995606;28;20441;-73
2022/10/31 07:13:10;;;;;;;3.10;1.20;;;14.40;47.90;;;;;;4994816;28;20785;-72
2022/10/31 07:15:38;;;;;;;3.40;1.40;;;14.20;47.60;;;;;;4995528;28;20909;-73
2022/10/31 07:18:06;;;;;;;3.20;1.33;;;14.40;47.20;;;;;;4992505;28;20433;-73
2022/10/31 07:20:32;;;;;;;3.00;1.20;;;14.40;46.60;;;;;;4993594;28;20464;-74
2022/10/31 07:22:58;;;;;;;4.07;1.73;;;14.80;47.20;;;;;;4987859;28;20971;-73
2022/10/31 07:25:24;;;;;;;3.70;1.57;;;14.60;47.00;;;;;;4993682;28;20374;-72
2022/10/31 07:27:50;;;;;;;2.93;1.20;;;14.50;46.50;;;;;;4994673;28;20442;-72
2022/10/31 07:30:19;;;;;;;3.00;1.30;;;14.30;46.90;;;;;;4990347;28;20934;-73
2022/10/31 07:32:49;;;;;;;4.17;2.10;;;13.90;47.70;;;;;;4994324;28;20478;-73
2022/10/31 07:35:20;;;;;;;3.40;1.30;;;13.90;47.60;;;;;;4975276;28;20430;-72
2022/10/31 07:37:46;;;;;;;3.17;1.40;;;14.10;47.70;;;;;;4991059;28;20448;-73
2022/10/31 07:40:12;;;;;;;3.53;1.60;;;14.20;46.90;;;;;;4990396;28;20495;-73
2022/10/31 07:42:41;;;;;;;3.27;1.60;;;14.10;46.00;;;;;;4981301;28;21006;-76
2022/10/31 07:45:09;;;;;;;2.70;1.10;;;14.30;46.00;;;;;;5000745;28;20824;-73
2022/10/31 07:47:42;;;;;;;2.90;1.33;;;14.30;45.50;;;;;;5005006;28;20423;-73
2022/10/31 07:50:09;;;;;;;3.30;1.50;;;13.70;46.60;;;;;;5014230;28;20410;-72
2022/10/31 07:52:35;;;;;;;2.80;1.30;;;13.90;48.50;;;;;;5012408;28;20413;-72
2022/10/31 07:55:01;;;;;;;3.00;1.30;;;14.10;47.90;;;;;;5013675;28;20431;-73
2022/10/31 07:57:28;;;;;;;2.90;1.40;;;13.90;48.80;;;;;;5011685;28;20297;-71
2022/10/31 07:59:53;;;;;;;3.40;1.83;;;13.70;50.60;;;;;;5003644;28;20823;-71
2022/10/31 08:02:19;;;;;;;3.27;1.50;;;14.10;49.60;;;;;;5013558;28;20455;-72
2022/10/31 08:04:44;;;;;;;3.63;1.70;;;14.60;47.70;;;;;;5013689;28;20290;-72
2022/10/31 08:07:10;;;;;;;3.33;1.57;;;14.90;46.80;;;;;;5013340;28;20689;-73
2022/10/31 08:09:36;;;;;;;2.80;1.30;;;15.10;45.80;;;;;;5013724;28;20175;-73
2022/10/31 08:12:01;;;;;;;2.90;1.40;;;15.30;45.90;;;;;;5013562;28;20711;-73
2022/10/31 08:14:27;;;;;;;3.20;1.60;;;15.50;45.30;;;;;;5008169;28;20190;-74
2022/10/31 08:16:53;;;;;;;9.07;2.57;;;15.80;45.00;;;;;;5007719;28;20207;-74
2022/10/31 08:19:19;;;;;;;3.57;1.70;;;15.60;44.30;;;;;;4977777;28;20233;-74
2022/10/31 08:21:45;;;;;;;3.03;1.50;;;15.70;44.80;;;;;;4993955;28;20464;-74
2022/10/31 08:24:11;;;;;;;2.73;1.23;;;15.90;44.20;;;;;;4988959;28;20440;-74
2022/10/31 08:26:37;;;;;;;4.07;2.00;;;16.00;44.10;;;;;;4993771;28;20450;-73
2022/10/31 08:29:02;;;;;;;3.27;1.83;;;15.90;44.90;;;;;;4992310;28;20194;-71
2022/10/31 08:31:29;;;;;;;3.67;1.50;;;16.00;44.10;;;;;;4991284;28;20574;-73
2022/10/31 08:33:55;;;;;;;2.60;1.20;;;16.10;43.80;;;;;;4987969;28;21059;-74
2022/10/31 08:36:21;;;;;;;3.10;1.60;;;16.10;43.80;;;;;;4992449;28;20448;-73
2022/10/31 08:38:47;;;;;;;2.80;1.40;;;16.10;43.50;;;;;;4988571;28;20188;-73
2022/10/31 08:41:13;;;;;;;2.50;1.30;;;16.00;44.80;;;;;;4993361;28;20436;-74
2022/10/31 08:43:39;;;;;;;2.50;1.30;;;16.20;44.30;;;;;;4990131;28;20447;-73
2022/10/31 08:46:05;;;;;;;4.63;1.83;;;16.50;43.60;;;;;;4989635;28;20455;-73
2022/10/31 08:48:31;;;;;;;2.60;1.40;;;16.60;43.00;;;;;;4991993;28;20205;-73
2022/10/31 08:50:58;;;;;;;3.70;1.80;;;16.60;41.90;;;;;;4988407;28;20433;-74
2022/10/31 08:53:25;;;;;;;3.60;1.90;;;16.70;42.30;;;;;;4992179;28;20449;-74
2022/10/31 08:55:50;;;;;;;2.53;1.47;;;16.80;41.70;;;;;;4985533;28;20472;-74
2022/10/31 08:58:19;;;;;;;2.70;1.60;;;16.90;41.30;;;;;;4991832;28;20809;-74
2022/10/31 09:00:47;;;;;;;3.07;1.70;;;16.90;41.10;;;;;;4991293;28;20224;-73
2022/10/31 09:03:17;;;;;;;3.23;1.60;;;16.90;41.70;;;;;;4992251;28;20464;-74
2022/10/31 09:05:43;;;;;;;2.40;1.30;;;17.00;41.50;;;;;;4992740;28;21029;-74
2022/10/31 09:08:09;;;;;;;2.70;1.50;;;17.10;41.40;;;;;;4992989;28;20444;-74
2022/10/31 09:10:36;;;;;;;3.80;2.30;;;17.10;41.70;;;;;;4992726;28;20440;-74
2022/10/31 09:13:16;;;;;;;2.20;1.40;;;16.70;41.80;;;;;;4991209;28;20266;-74
2022/10/31 09:15:43;;;;;;;2.30;1.40;;;16.60;42.30;;;;;;4967697;28;20591;-73
2022/10/31 09:18:10;;;;;;;2.50;1.60;;;16.50;42.60;;;;;;4988866;28;20788;-73
2022/10/31 09:20:37;;;;;;;5.73;2.40;;;16.60;42.90;;;;;;4979520;28;20442;-73
2022/10/31 09:23:24;;;;;;;2.30;1.50;;;17.10;42.90;;;;;;4983412;28;20468;-75
2022/10/31 09:25:52;;;;;;;2.87;1.57;;;17.50;41.10;;;;;;4985854;28;20465;-73
2022/10/31 09:28:19;;;;;;;4.17;2.10;;;17.60;39.70;;;;;;4980106;28;20544;-73
2022/10/31 09:30:50;;;;;;;2.53;1.50;;;17.70;39.50;;;;;;4984552;28;20433;-75
2022/10/31 09:33:16;;;;;;;2.53;1.60;;;17.70;39.50;;;;;;4989421;28;20971;-74
2022/10/31 09:35:42;;;;;;;5.70;2.30;;;18.00;40.60;;;;;;4994216;28;20487;-74
2022/10/31 09:38:22;;;;;;;2.17;1.37;;;17.70;39.50;;;;;;4991588;28;20632;-72
2022/10/31 09:41:06;;;;;;;2.30;1.60;;;17.90;39.70;;;;;;4974752;28;20465;-75
2022/10/31 09:43:55;;;;;;;2.30;1.60;;;18.20;40.00;;;;;;4993068;28;20417;-75
2022/10/31 09:46:25;;;;;;;2.73;1.80;;;18.80;37.50;;;;;;4992210;28;20446;-75
2022/10/31 09:49:13;;;;;;;2.63;1.77;;;19.00;36.10;;;;;;4992219;28;20398;-74
2022/10/31 09:51:43;;;;;;;2.97;1.87;;;19.10;36.60;;;;;;4994961;28;20436;-74
2022/10/31 09:54:21;;;;;;;3.50;1.77;;;19.00;37.50;;;;;;5003820;28;20401;-75
2022/10/31 09:56:46;;;;;;;2.40;1.40;;;18.90;37.00;;;;;;4987688;28;20456;-75
2022/10/31 09:59:33;;;;;;;3.47;1.70;;;18.90;38.00;;;;;;4991209;28;20996;-75
2022/10/31 10:02:20;;;;;;;2.57;1.67;;;19.50;36.50;;;;;;4990671;28;20904;-74
2022/10/31 10:05:00;;;;;;;4.37;2.00;;;19.30;35.90;;;;;;4992191;28;20394;-75
2022/10/31 10:07:27;;;;;;;5.93;2.07;;;19.30;35.80;;;;;;4990785;28;20477;-75
2022/10/31 10:09:53;;;;;;;5.87;2.27;;;19.20;37.40;;;;;;4990440;28;20460;-76
2022/10/31 10:12:37;;;;;;;2.33;1.80;;;19.60;35.90;;;;;;4972447;28;20421;-75
2022/10/31 10:15:32;;;;;;;2.27;1.80;;;19.80;35.20;;;;;;4972409;28;20161;-74
2022/10/31 10:18:23;;;;;;;3.77;2.20;;;19.30;36.10;;;;;;4986939;28;20541;-75
2022/10/31 10:21:00;;;;;;;2.20;1.77;;;18.60;38.20;;;;;;4989162;28;20519;-74
2022/10/31 10:23:34;;;;;;;2.10;1.50;;;18.70;38.40;;;;;;4993370;28;20474;-77
2022/10/31 10:26:19;;;;;;;1.73;1.27;;;18.70;38.20;;;;;;5003111;28;20439;-75
2022/10/31 10:28:51;;;;;;;2.67;1.63;;;18.70;38.60;;;;;;4994968;28;20436;-76
2022/10/31 10:31:23;;;;;;;2.70;1.90;;;18.50;39.00;;;;;;4991779;28;20515;-76
2022/10/31 10:34:01;;;;;;;3.60;1.60;;;18.90;38.70;;;;;;4991917;28;20435;-74
2022/10/31 10:36:51;;;;;;;2.23;1.60;;;19.20;37.40;;;;;;4989978;28;20551;-75
2022/10/31 10:39:31;;;;;;;2.53;1.53;;;19.60;37.00;;;;;;4976628;28;20428;-75
2022/10/31 10:47:41;;;;;;;3.57;2.00;;;20.00;36.10;;;;;;4979239;28;20480;-76
2022/10/31 10:50:17;;;;;;;2.23;1.67;;;19.80;35.50;;;;;;4991796;28;20487;-75
2022/10/31 10:53:21;;;;;;;1.80;1.33;;;19.20;36.60;;;;;;4985268;28;20432;-76
2022/10/31 10:56:11;;;;;;;2.53;1.63;;;20.00;35.70;;;;;;4944684;28;20469;-76
2022/10/31 10:58:39;;;;;;;3.57;1.97;;;20.60;34.10;;;;;;4989425;28;20454;-77
2022/10/31 11:01:14;;;;;;;2.53;1.77;;;20.40;34.60;;;;;;4984512;28;20442;-78
2022/10/31 11:03:41;;;;;;;2.70;2.03;;;20.20;35.00;;;;;;4989734;28;20453;-78
2022/10/31 11:06:24;;;;;;;4.20;1.67;;;20.70;33.90;;;;;;4988527;28;20469;-77
2022/10/31 11:08:50;;;;;;;2.00;1.50;;;21.10;32.90;;;;;;4991107;28;20431;-78
2022/10/31 11:11:30;;;;;;;2.73;1.43;;;20.80;33.60;;;;;;4990480;28;20944;-77
2022/10/31 11:14:14;;;;;;;2.67;1.67;;;21.00;34.50;;;;;;4991291;28;20210;-77
2022/10/31 11:16:44;;;;;;;2.50;1.70;;;21.50;32.20;;;;;;4992294;28;20455;-77
2022/10/31 11:19:20;;;;;;;2.00;1.40;;;21.90;31.50;;;;;;4974032;28;20435;-77
2022/10/31 11:21:47;;;;;;;2.50;1.47;;;21.70;32.80;;;;;;5007236;28;20450;-77
2022/10/31 11:24:27;;;;;;;2.93;1.77;;;22.10;31.10;;;;;;5015613;28;20412;-76
2022/10/31 11:27:19;;;;;;;4.57;2.07;;;21.50;31.40;;;;;;4997708;28;20438;-77
2022/10/31 11:29:45;;;;;;;3.13;1.97;;;21.10;32.60;;;;;;5015527;28;20406;-77
2022/10/31 11:32:23;;;;;;;2.10;1.20;;;21.70;34.80;;;;;;4999414;28;20444;-77
2022/10/31 11:34:57;;;;;;;2.80;1.63;;;21.90;31.70;;;;;;5007084;28;20204;-77
2022/10/31 11:37:43;;;;;;;2.30;1.30;;;21.70;31.30;;;;;;5015232;28;20461;-77
2022/10/31 11:40:24;;;;;;;2.77;1.67;;;21.70;31.60;;;;;;4988835;28;20440;-77
2022/10/31 11:42:54;;;;;;;2.57;1.50;;;21.70;32.40;;;;;;5010448;28;20506;-77
2022/10/31 11:45:22;;;;;;;3.23;1.70;;;21.90;31.40;;;;;;5005895;28;20468;-76
2022/10/31 11:47:50;;;;;;;2.50;1.20;;;21.60;32.30;;;;;;5009812;28;20467;-77
2022/10/31 11:50:23;;;;;;;27.70;2.70;;;21.60;32.00;;;;;;5012824;28;20493;-76
2022/10/31 11:52:50;;;;;;;3.93;1.60;;;21.60;30.70;;;;;;5007494;28;20416;-77
2022/10/31 11:55:30;;;;;;;3.30;1.73;;;22.20;31.00;;;;;;5016350;28;20917;-77
2022/10/31 11:57:56;;;;;;;3.00;1.60;;;21.80;30.20;;;;;;5016207;28;20408;-77
2022/10/31 12:00:26;;;;;;;3.07;1.53;;;21.90;30.80;;;;;;5007242;28;20450;-77
2022/10/31 12:03:04;;;;;;;2.80;1.30;;;21.40;31.90;;;;;;4991061;28;20511;-76
2022/10/31 12:05:32;;;;;;;2.87;1.53;;;21.80;31.40;;;;;;4970249;28;20465;-76
2022/10/31 12:07:58;;;;;;;3.80;2.00;;;22.20;30.50;;;;;;5004552;28;20416;-76
2022/10/31 12:10:44;;;;;;;2.70;1.40;;;22.00;30.60;;;;;;4992387;28;20842;-75
2022/10/31 12:13:34;;;;;;;2.87;1.57;;;21.40;31.90;;;;;;4993738;28;20423;-76
2022/10/31 12:16:08;;;;;;;2.60;1.40;;;20.50;35.00;;;;;;4976412;28;20470;-76
2022/10/31 12:18:55;;;;;;;2.60;1.40;;;20.20;36.30;;;;;;4992799;28;20479;-76
2022/10/31 12:21:45;;;;;;;3.97;1.57;;;20.30;35.80;;;;;;4993576;28;20439;-76
2022/10/31 12:24:53;;;;;;;3.10;1.77;;;20.60;35.60;;;;;;4994390;28;20462;-76
2022/10/31 12:27:37;;;;;;;5.23;1.87;;;21.10;34.30;;;;;;4984762;28;20833;-75
2022/10/31 12:30:15;;;;;;;3.43;1.70;;;21.30;33.60;;;;;;4994459;28;20431;-77
2022/10/31 12:33:18;;;;;;;2.70;1.63;;;21.20;34.20;;;;;;4990245;28;20448;-74
2022/10/31 12:36:22;;;;;;;2.60;1.57;;;21.10;33.40;;;;;;4992424;28;20976;-71
2022/10/31 12:38:53;;;;;;;3.20;1.70;;;21.10;34.40;;;;;;4896720;29;20910;-73
2022/10/31 12:41:43;;;;;;;44.00;2.23;;;21.50;33.20;;;;;;4908754;29;20612;-72
2022/10/31 12:44:30;;;;;;;3.97;1.93;;;21.80;32.80;;;;;;4900232;29;20457;-72
2022/10/31 12:47:10;;;;;;;2.70;1.67;;;21.80;33.30;;;;;;4895745;29;20468;-73
2022/10/31 12:50:06;;;;;;;12.97;1.67;;;21.70;33.30;;;;;;4899567;29;20824;-73
2022/10/31 12:52:50;;;;;;;2.27;1.40;;;21.80;33.20;;;;;;4893853;29;20454;-74
2022/10/31 12:55:45;;;;;;;2.63;1.50;;;22.10;33.70;;;;;;4893689;29;20443;-73
2022/10/31 12:58:26;;;;;;;2.73;1.63;;;22.20;32.40;;;;;;4894517;29;20845;-72
2022/10/31 13:01:10;;;;;;;8.30;1.80;;;22.00;32.40;;;;;;4892719;29;20446;-73
2022/10/31 13:03:53;;;;;;;4.20;1.50;;;21.90;32.60;;;;;;4894039;29;20475;-73
2022/10/31 13:06:34;;;;;;;2.87;1.60;;;22.20;32.70;;;;;;4895745;29;20513;-72
2022/10/31 13:09:05;;;;;;;5.10;1.73;;;22.30;32.10;;;;;;4895745;29;20806;-73
2022/10/31 13:11:37;;;;;;;2.93;1.60;;;22.30;31.50;;;;;;4895968;29;20834;-74